Time;durP1;ratioP1;P1;durP2;ratioP2;P2;SDS_P1;SDS_P2;PMS_P1;PMS_P2;Temp;Humidity;BMP_temperature;BMP_pressure;BME280_temperature;BME280_humidity;BME280_pressure;Samples;Min_cycle;Max_cycle;Signal;HPM_P1;HPM_P2
2021/03/17 00:02:14;;;;;;;7.00;1.40;;;;;;;25.59;30.25;96968.69;5040832;28;20037;-27
2021/03/17 00:04:40;;;;;;;2.35;1.35;;;;;;;25.58;30.10;96972.25;5043784;28;20047;-26
2021/03/17 00:07:05;;;;;;;2.78;1.33;;;;;;;25.57;30.16;96960.91;5042054;28;20392;-26
2021/03/17 00:09:30;;;;;;;2.03;1.13;;;;;;;25.57;30.19;96966.16;5045846;28;20021;-25
2021/03/17 00:11:57;;;;;;;2.40;1.38;;;;;;;25.56;30.15;96961.81;5041409;28;20032;-24
2021/03/17 00:14:22;;;;;;;3.55;1.67;;;;;;;25.56;30.15;96963.59;5045432;28;20036;-24
2021/03/17 00:16:47;;;;;;;2.75;1.38;;;;;;;25.56;30.06;96964.44;5042790;28;20039;-26
2021/03/17 00:19:13;;;;;;;3.00;1.42;;;;;;;25.56;30.17;96968.84;5039963;28;20071;-25
2021/03/17 00:21:38;;;;;;;1.63;1.13;;;;;;;25.56;30.07;96968.84;5053055;28;20032;-25
2021/03/17 00:24:04;;;;;;;2.28;1.10;;;;;;;25.56;30.07;96960.97;5043424;28;20032;-25
2021/03/17 00:26:30;;;;;;;1.85;1.15;;;;;;;25.56;30.21;96967.06;5041256;28;20391;-26
2021/03/17 00:28:55;;;;;;;1.80;1.30;;;;;;;25.54;30.18;96960.16;5042133;28;20033;-28
2021/03/17 00:31:20;;;;;;;1.55;1.08;;;;;;;25.54;30.02;96958.41;5043113;28;20566;-26
2021/03/17 00:33:46;;;;;;;2.38;1.15;;;;;;;25.54;30.01;96954.91;5044293;28;20024;-25
2021/03/17 00:36:11;;;;;;;3.92;1.35;;;;;;;25.55;30.07;96956.63;5043003;28;20041;-25
2021/03/17 00:38:37;;;;;;;3.20;1.17;;;;;;;25.54;30.12;96954.91;5042183;28;20024;-28
2021/03/17 00:41:02;;;;;;;2.60;1.30;;;;;;;25.52;30.25;96947.13;5042250;28;20579;-26
2021/03/17 00:43:27;;;;;;;1.27;0.93;;;;;;;25.54;30.06;96949.66;5044935;28;20017;-25
2021/03/17 00:45:53;;;;;;;2.05;1.10;;;;;;;25.54;30.10;96947.91;5032778;28;20489;-25
2021/03/17 00:48:18;;;;;;;1.73;1.00;;;;;;;25.53;30.18;96943.59;5042267;28;20021;-27
2021/03/17 00:50:44;;;;;;;1.85;1.00;;;;;;;25.54;30.06;96945.28;5045709;28;20031;-26
2021/03/17 00:53:09;;;;;;;1.77;0.90;;;;;;;25.52;30.17;96941.88;5046063;28;20017;-25
2021/03/17 00:55:34;;;;;;;2.13;1.10;;;;;;;25.53;30.30;96937.47;5037261;28;20024;-25
2021/03/17 00:58:00;;;;;;;1.77;1.00;;;;;;;25.53;29.99;96933.09;5044603;28;20028;-25
2021/03/17 01:00:25;;;;;;;2.95;1.05;;;;;;;25.52;30.06;96928.75;5042867;28;20037;-23
2021/03/17 01:02:51;;;;;;;1.33;0.90;;;;;;;25.52;30.27;96926.13;5043016;28;20052;-26
2021/03/17 01:05:31;;;;;;;1.50;1.00;;;;;;;25.52;30.07;96931.38;5037468;28;21074;-26
2021/03/17 01:07:57;;;;;;;1.23;0.90;;;;;;;25.52;30.24;96925.28;5042217;28;20653;-23
2021/03/17 01:10:24;;;;;;;2.08;1.00;;;;;;;25.52;30.27;96920.03;5043770;28;20029;-24
2021/03/17 01:12:49;;;;;;;1.58;0.90;;;;;;;25.52;29.97;96918.25;5043110;28;20092;-29
2021/03/17 01:15:17;;;;;;;3.20;1.40;;;;;;;25.53;29.96;96916.50;5037548;28;20036;-25
2021/03/17 01:17:42;;;;;;;1.45;0.88;;;;;;;25.51;30.09;96916.56;5036904;28;20083;-23
2021/03/17 01:20:08;;;;;;;3.13;1.00;;;;;;;25.51;30.06;96913.94;5042356;28;20021;-29
2021/03/17 01:22:34;;;;;;;2.08;1.10;;;;;;;25.52;30.16;96912.19;5038759;28;20107;-27
2021/03/17 01:25:00;;;;;;;2.05;1.00;;;;;;;25.51;30.10;96908.69;5032536;28;20025;-27
2021/03/17 01:27:25;;;;;;;1.73;0.95;;;;;;;25.49;29.96;96910.56;5040942;28;20033;-29
2021/03/17 01:29:50;;;;;;;4.78;1.08;;;;;;;25.51;30.03;96907.84;5039536;28;20040;-26
2021/03/17 01:32:16;;;;;;;4.60;1.20;;;;;;;25.50;29.84;96908.75;5038886;28;20917;-25
2021/03/17 01:34:41;;;;;;;1.92;0.95;;;;;;;25.49;29.89;96907.94;5037773;28;20087;-25
2021/03/17 01:37:07;;;;;;;1.98;0.98;;;;;;;25.49;30.03;96909.69;5039632;28;20066;-26
2021/03/17 01:39:32;;;;;;;2.10;0.90;;;;;;;25.47;30.19;96899.28;5041165;28;20051;-24
2021/03/17 01:41:57;;;;;;;3.10;1.00;;;;;;;25.48;29.93;96898.38;5042103;28;20708;-25
2021/03/17 01:44:23;;;;;;;1.75;0.90;;;;;;;25.47;30.17;96904.53;5043387;28;20021;-26
2021/03/17 01:46:48;;;;;;;1.58;0.70;;;;;;;25.47;30.08;96896.66;5034095;28;20033;-26
2021/03/17 01:49:13;;;;;;;1.95;0.70;;;;;;;25.47;29.92;96901.91;5040623;28;20033;-25
2021/03/17 01:51:39;;;;;;;2.70;1.05;;;;;;;25.47;29.96;96898.44;5038434;28;20041;-25
2021/03/17 01:54:05;;;;;;;2.33;1.10;;;;;;;25.47;29.99;96899.28;5044812;28;20033;-25
2021/03/17 01:56:31;;;;;;;1.80;1.00;;;;;;;25.47;29.95;96901.91;5039965;28;20120;-28
2021/03/17 01:58:56;;;;;;;3.63;0.80;;;;;;;25.45;29.81;96893.25;5040716;28;20044;-21
2021/03/17 02:01:21;;;;;;;1.10;0.70;;;;;;;25.45;29.87;96898.50;5036348;28;20052;-27
2021/03/17 02:03:47;;;;;;;1.30;0.77;;;;;;;25.44;29.81;96897.66;5042018;28;20025;-25
2021/03/17 02:06:13;;;;;;;1.23;0.70;;;;;;;25.45;30.04;96901.13;5033585;28;20555;-25
2021/03/17 02:08:40;;;;;;;1.85;0.70;;;;;;;25.44;29.99;96904.69;5038008;28;20029;-27
2021/03/17 02:11:06;;;;;;;1.67;0.80;;;;;;;25.44;30.04;96902.06;5039744;28;20029;-24
2021/03/17 02:13:40;;;;;;;1.20;0.70;;;;;;;25.44;30.03;96902.06;5040902;28;20515;-26
2021/03/17 02:16:28;;;;;;;1.38;0.73;;;;;;;25.43;29.91;96900.34;5036201;28;20139;-24
2021/03/17 02:18:56;;;;;;;0.90;0.68;;;;;;;25.44;29.88;96896.81;5040106;28;20103;-27
2021/03/17 02:21:46;;;;;;;1.92;1.05;;;;;;;25.43;30.09;96900.34;5043865;28;20032;-24
2021/03/17 02:24:26;;;;;;;1.10;0.70;;;;;;;25.43;30.09;96900.34;5042570;28;20083;-25
2021/03/17 02:27:10;;;;;;;2.00;0.70;;;;;;;25.42;29.97;96902.16;5038756;28;20136;-28
2021/03/17 02:29:54;;;;;;;1.13;0.77;;;;;;;25.41;29.94;96902.22;5041737;28;20025;-26
2021/03/17 02:32:51;;;;;;;3.17;0.85;;;;;;;25.41;29.82;96896.97;5041401;28;20699;-25
2021/03/17 02:35:17;;;;;;;2.55;0.77;;;;;;;25.41;30.06;96902.22;5038953;28;20029;-24
2021/03/17 02:37:43;;;;;;;0.80;0.50;;;;;;;25.40;29.96;96905.78;5037863;28;20028;-26
2021/03/17 02:40:13;;;;;;;2.78;0.70;;;;;;;25.39;29.76;96899.66;5019658;28;20045;-22
2021/03/17 02:42:45;;;;;;;1.70;0.50;;;;;;;25.39;29.87;96902.28;5036618;28;20049;-26
2021/03/17 02:45:11;;;;;;;1.33;0.60;;;;;;;25.39;29.96;96904.03;5021436;28;20032;-27
2021/03/17 02:47:39;;;;;;;1.13;0.70;;;;;;;25.38;30.03;96904.97;5036148;28;20420;-23
2021/03/17 02:50:05;;;;;;;1.23;0.70;;;;;;;25.39;30.06;96899.66;5029863;28;20121;-26
2021/03/17 02:52:34;;;;;;;0.88;0.60;;;;;;;25.39;30.00;96888.31;5033583;28;20308;-21
2021/03/17 02:55:00;;;;;;;1.35;0.77;;;;;;;25.36;29.83;96880.63;5016058;28;20119;-26
2021/03/17 02:57:26;;;;;;;1.67;0.65;;;;;;;25.37;30.00;96875.28;5020785;28;20078;-24
2021/03/17 02:59:53;;;;;;;0.90;0.70;;;;;;;25.37;30.06;96877.06;5040082;28;20528;-23
2021/03/17 03:02:19;;;;;;;2.35;0.90;;;;;;;25.35;29.83;96884.16;5037857;28;20045;-25
2021/03/17 03:04:45;;;;;;;5.10;0.70;;;;;;;25.37;29.91;96882.31;5020109;28;20085;-23
2021/03/17 03:07:10;;;;;;;2.88;1.00;;;;;;;25.36;29.96;96886.69;5008840;28;20037;-26
2021/03/17 03:09:36;;;;;;;1.63;0.63;;;;;;;25.37;29.83;96887.56;5025760;28;20017;-29
2021/03/17 03:12:01;;;;;;;1.05;0.70;;;;;;;25.36;30.04;96886.69;5023138;28;20463;-25
2021/03/17 03:14:27;;;;;;;0.77;0.40;;;;;;;25.36;29.98;96893.72;5039568;28;20025;-27
2021/03/17 03:16:56;;;;;;;1.73;0.63;;;;;;;25.37;29.72;96892.78;5038727;28;20067;-26
2021/03/17 03:19:28;;;;;;;2.42;0.50;;;;;;;25.36;29.80;96891.09;5024045;28;20115;-26
2021/03/17 03:21:53;;;;;;;1.55;0.70;;;;;;;25.36;29.74;96888.47;5025758;28;20516;-27
2021/03/17 03:24:19;;;;;;;1.73;0.60;;;;;;;25.35;29.82;96886.78;5040842;28;20040;-22
2021/03/17 03:26:47;;;;;;;2.58;0.50;;;;;;;25.36;29.79;96893.72;5035814;28;20031;-24
2021/03/17 03:29:12;;;;;;;2.47;0.60;;;;;;;25.35;30.01;96887.63;5036746;28;20076;-27
2021/03/17 03:31:38;;;;;;;1.30;0.60;;;;;;;25.35;29.91;96886.78;5041876;28;21035;-26
2021/03/17 03:34:03;;;;;;;1.45;0.50;;;;;;;25.34;29.99;96883.31;5040099;28;20021;-27
2021/03/17 03:36:29;;;;;;;1.08;0.50;;;;;;;25.35;29.94;96887.63;5035700;28;20032;-26
2021/03/17 03:38:57;;;;;;;1.20;0.60;;;;;;;25.34;29.79;96885.06;5036862;28;20052;-25
2021/03/17 03:41:23;;;;;;;0.93;0.57;;;;;;;25.35;29.83;96897.28;5030688;28;20032;-25
2021/03/17 03:43:48;;;;;;;0.45;0.45;;;;;;;25.35;29.88;96892.03;5039847;28;20032;-24
2021/03/17 03:46:13;;;;;;;0.90;0.70;;;;;;;25.35;29.95;96897.28;5038462;28;20425;-23
2021/03/17 03:48:39;;;;;;;2.35;0.40;;;;;;;25.34;29.84;96895.56;5039517;28;20654;-25
2021/03/17 03:51:04;;;;;;;0.75;0.50;;;;;;;25.33;29.75;96893.88;5045068;28;20035;-24
2021/03/17 03:53:29;;;;;;;1.58;0.52;;;;;;;25.33;29.86;96893.88;5039738;28;20028;-23
2021/03/17 03:56:08;;;;;;;1.17;0.52;;;;;;;25.31;29.83;96896.56;5038556;28;20032;-31
2021/03/17 03:58:36;;;;;;;1.98;0.50;;;;;;;25.31;29.84;96892.19;5039037;28;20108;-27
2021/03/17 04:01:17;;;;;;;2.40;0.70;;;;;;;25.30;29.78;96898.34;5045128;28;20524;-23
2021/03/17 04:03:46;;;;;;;0.53;0.50;;;;;;;25.31;29.79;96907.91;5024317;28;20029;-29
2021/03/17 04:06:12;;;;;;;1.42;0.50;;;;;;;25.31;29.82;96913.16;5018958;28;20353;-27
2021/03/17 04:08:41;;;;;;;2.75;0.40;;;;;;;25.30;29.73;96908.84;5023048;28;20400;-27
2021/03/17 04:11:06;;;;;;;3.13;0.60;;;;;;;25.30;29.61;96915.84;5043194;28;20021;-24
2021/03/17 04:13:31;;;;;;;2.17;0.60;;;;;;;25.30;29.63;96911.47;5044389;28;20024;-24
2021/03/17 04:15:57;;;;;;;3.13;0.60;;;;;;;25.29;29.60;96920.25;5023126;28;20056;-27
2021/03/17 04:18:25;;;;;;;0.98;0.60;;;;;;;25.28;29.81;96915.94;5028788;28;20036;-25
2021/03/17 04:20:53;;;;;;;2.83;0.60;;;;;;;25.29;29.87;96912.38;5041300;28;20025;-25
2021/03/17 04:23:20;;;;;;;1.85;0.40;;;;;;;25.28;29.69;96918.56;5026967;28;20032;-24
2021/03/17 04:25:47;;;;;;;0.80;0.50;;;;;;;25.28;29.77;96918.56;5016467;28;20029;-27
2021/03/17 04:28:14;;;;;;;2.35;0.60;;;;;;;25.29;29.75;96920.25;5024386;28;20036;-27
2021/03/17 04:30:40;;;;;;;2.03;0.60;;;;;;;25.29;29.88;96914.16;5038522;28;20052;-26
2021/03/17 04:33:05;;;;;;;1.30;0.68;;;;;;;25.27;29.64;96916.88;5045158;28;20021;-23
2021/03/17 04:35:30;;;;;;;2.17;0.50;;;;;;;25.28;29.58;96923.78;5023563;28;20548;-27
2021/03/17 04:37:56;;;;;;;1.55;0.45;;;;;;;25.28;29.83;96913.31;5040157;28;20555;-23
2021/03/17 04:40:21;;;;;;;1.30;0.52;;;;;;;25.28;29.79;96917.72;5036379;28;20032;-26
2021/03/17 04:42:47;;;;;;;1.10;0.50;;;;;;;25.27;29.77;96922.09;5022234;28;20132;-26
2021/03/17 04:45:13;;;;;;;0.75;0.47;;;;;;;25.27;29.67;96916.00;5040297;28;20032;-24
2021/03/17 04:47:39;;;;;;;0.35;0.30;;;;;;;25.27;29.84;96918.63;5038467;28;20040;-26
2021/03/17 04:50:05;;;;;;;0.95;0.40;;;;;;;25.27;29.66;96916.00;5029963;28;20039;-24
2021/03/17 04:52:31;;;;;;;1.33;0.70;;;;;;;25.26;29.65;96915.16;5040835;28;20021;-26
2021/03/17 04:54:56;;;;;;;0.43;0.40;;;;;;;25.26;29.55;96916.94;5020892;28;20029;-24
2021/03/17 04:57:23;;;;;;;0.45;0.32;;;;;;;25.25;29.72;96923.94;5034189;28;20033;-27
2021/03/17 04:59:49;;;;;;;0.70;0.40;;;;;;;25.25;29.64;96920.50;5041861;28;20476;-25
2021/03/17 05:02:15;;;;;;;0.85;0.40;;;;;;;25.25;29.54;96929.19;5041285;28;20091;-25
2021/03/17 05:04:40;;;;;;;0.77;0.40;;;;;;;25.25;29.65;96923.94;5018437;28;20025;-26
2021/03/17 05:07:06;;;;;;;1.00;0.47;;;;;;;25.24;29.66;96926.66;5036676;28;20043;-26
2021/03/17 05:09:32;;;;;;;1.27;0.40;;;;;;;25.25;29.74;96929.19;5037152;28;20091;-27
2021/03/17 05:11:58;;;;;;;0.70;0.40;;;;;;;25.24;29.58;96927.50;5025258;28;20380;-26
2021/03/17 05:14:23;;;;;;;1.27;0.40;;;;;;;25.24;29.61;96931.91;5040109;28;20040;-25
2021/03/17 05:16:50;;;;;;;2.70;0.47;;;;;;;25.23;29.77;96931.03;5022458;28;20045;-24
2021/03/17 05:19:15;;;;;;;1.00;0.60;;;;;;;25.24;29.67;96931.91;5041814;28;20056;-26
2021/03/17 05:21:40;;;;;;;0.95;0.38;;;;;;;25.21;29.50;96932.91;5036273;28;20029;-26
2021/03/17 05:24:06;;;;;;;1.55;0.40;;;;;;;25.22;29.53;96939.84;5024092;28;20508;-25
2021/03/17 05:26:33;;;;;;;0.50;0.30;;;;;;;25.22;29.67;96938.97;5034367;28;20036;-23
2021/03/17 05:28:59;;;;;;;3.13;0.50;;;;;;;25.21;29.70;96932.91;5041650;28;20025;-27
2021/03/17 05:31:24;;;;;;;0.77;0.47;;;;;;;25.22;29.68;96933.75;5040298;28;20044;-28
2021/03/17 05:33:49;;;;;;;0.98;0.30;;;;;;;25.22;29.65;96941.59;5040606;28;20037;-26
2021/03/17 05:36:15;;;;;;;1.65;0.50;;;;;;;25.21;29.38;96932.91;5023946;28;20075;-26
2021/03/17 05:38:40;;;;;;;0.50;0.35;;;;;;;25.21;29.68;96943.41;5039562;28;20036;-25
2021/03/17 05:41:06;;;;;;;0.63;0.40;;;;;;;25.22;29.50;96947.72;5036303;28;20033;-26
2021/03/17 05:43:31;;;;;;;1.02;0.35;;;;;;;25.21;29.51;96934.66;5038527;28;20025;-27
2021/03/17 05:45:57;;;;;;;0.50;0.30;;;;;;;25.20;29.63;96946.09;5024898;28;20033;-24
2021/03/17 05:48:22;;;;;;;0.40;0.38;;;;;;;25.20;29.46;96949.53;5039327;28;20758;-26
2021/03/17 05:50:48;;;;;;;0.40;0.25;;;;;;;25.20;29.51;96951.34;5038078;28;20024;-25
2021/03/17 05:53:13;;;;;;;0.80;0.60;;;;;;;25.18;29.42;96949.63;5042274;28;20052;-26
2021/03/17 05:55:38;;;;;;;0.68;0.40;;;;;;;25.19;29.72;96955.72;5024846;28;20021;-23
2021/03/17 05:58:04;;;;;;;0.85;0.50;;;;;;;25.18;29.66;96965.34;5041509;28;20389;-24
2021/03/17 06:00:29;;;;;;;1.17;0.65;;;;;;;25.18;29.63;96970.59;5032386;28;20579;-25
2021/03/17 06:02:55;;;;;;;0.40;0.38;;;;;;;25.18;29.71;96964.53;5040665;28;20033;-25
2021/03/17 06:05:21;;;;;;;1.67;0.50;;;;;;;25.17;29.61;96968.06;5039424;28;20119;-23
2021/03/17 06:08:05;;;;;;;1.65;0.35;;;;;;;25.16;29.62;96967.22;5038882;28;20104;-26
2021/03/17 06:10:31;;;;;;;1.40;0.40;;;;;;;25.17;29.42;96968.06;5034044;28;20032;-26
2021/03/17 06:13:01;;;;;;;1.20;0.43;;;;;;;25.15;29.36;96965.53;5039574;28;20523;-24
2021/03/17 06:15:27;;;;;;;0.32;0.32;;;;;;;25.15;29.50;96969.91;5040520;28;20510;-26
2021/03/17 06:18:02;;;;;;;0.70;0.43;;;;;;;25.16;29.63;96969.84;5040478;28;20082;-25
2021/03/17 06:20:27;;;;;;;0.52;0.40;;;;;;;25.16;29.65;96966.34;5041578;28;20539;-23
2021/03/17 06:22:52;;;;;;;1.83;0.85;;;;;;;25.15;29.18;96969.91;5033957;28;20037;-24
2021/03/17 06:25:18;;;;;;;1.55;0.70;;;;;;;25.13;29.09;96967.34;5037242;28;20017;-24
2021/03/17 06:27:43;;;;;;;4.55;0.63;;;;;;;25.12;29.45;96975.28;5035446;28;20033;-24
2021/03/17 06:30:10;;;;;;;1.40;0.50;;;;;;;25.11;29.34;96979.69;5005480;28;20032;-27
2021/03/17 06:32:36;;;;;;;0.22;0.22;;;;;;;25.12;29.42;96980.53;5037419;28;20057;-26
2021/03/17 06:35:11;;;;;;;0.43;0.30;;;;;;;25.12;29.30;96977.91;5039438;28;20555;-24
2021/03/17 06:37:37;;;;;;;0.63;0.22;;;;;;;25.12;29.58;96980.53;5034817;28;20081;-27
2021/03/17 06:40:03;;;;;;;0.95;0.47;;;;;;;25.12;29.37;96991.03;5034090;28;20040;-24
2021/03/17 06:42:39;;;;;;;0.75;0.40;;;;;;;25.13;29.40;96982.25;5042218;28;20087;-26
2021/03/17 06:45:06;;;;;;;0.82;0.40;;;;;;;25.13;29.53;96987.50;5040100;28;20492;-24
2021/03/17 06:47:31;;;;;;;1.20;0.38;;;;;;;25.13;29.75;96985.69;5039247;28;20041;-26
2021/03/17 06:49:56;;;;;;;0.38;0.38;;;;;;;25.13;29.41;96983.09;5036817;28;20060;-20
2021/03/17 06:52:38;;;;;;;0.20;0.20;;;;;;;25.14;29.51;96990.03;5031198;28;20029;-26
2021/03/17 06:55:07;;;;;;;;;;;;;;;25.15;29.66;96996.13;5032019;28;20040;-23
2021/03/17 06:57:33;;;;;;;2.58;0.50;;;;;;;25.15;29.39;97006.63;5035966;28;19952;-24
2021/03/17 07:00:17;;;;;;;1.13;0.50;;;;;;;25.13;29.48;97011.94;5037376;28;20090;-22
2021/03/17 07:02:52;;;;;;;0.40;0.40;;;;;;;25.13;29.49;97013.72;5020013;28;20136;-26
2021/03/17 07:05:17;;;;;;;0.55;0.40;;;;;;;25.14;29.55;97016.25;5010110;28;20029;-25
2021/03/17 07:07:50;;;;;;;1.13;0.40;;;;;;;25.15;29.42;97022.34;5017272;28;20037;-25
2021/03/17 07:10:31;;;;;;;0.40;0.22;;;;;;;25.14;29.43;97031.97;5011216;28;20044;-25
2021/03/17 07:12:56;;;;;;;0.60;0.38;;;;;;;25.15;29.42;97022.34;5018634;28;20029;-22
2021/03/17 07:15:22;;;;;;;0.50;0.30;;;;;;;25.15;29.43;97030.22;5019759;28;20498;-23
2021/03/17 07:17:48;;;;;;;0.50;0.40;;;;;;;25.14;29.48;97029.34;5015558;28;20064;-25
2021/03/17 07:20:14;;;;;;;0.70;0.40;;;;;;;25.15;29.39;97032.84;5016001;28;20083;-26
2021/03/17 07:22:39;;;;;;;0.95;0.43;;;;;;;25.15;29.49;97031.09;5015102;28;21031;-25
2021/03/17 07:25:05;;;;;;;0.93;0.30;;;;;;;25.15;29.43;97030.22;5022669;28;20048;-25
2021/03/17 07:27:32;;;;;;;0.77;0.32;;;;;;;25.15;29.61;97032.84;5023229;28;20031;-25
2021/03/17 07:29:57;;;;;;;0.60;0.40;;;;;;;25.16;29.43;97039.78;5019345;28;20029;-25
2021/03/17 07:32:26;;;;;;;1.52;0.40;;;;;;;25.17;29.55;97036.25;5020687;28;20477;-24
2021/03/17 07:34:52;;;;;;;0.70;0.30;;;;;;;25.17;29.50;97041.50;5023345;28;20536;-26
2021/03/17 07:37:17;;;;;;;0.57;0.50;;;;;;;25.17;29.62;97038.88;5026400;28;20033;-25
2021/03/17 07:39:43;;;;;;;0.95;0.45;;;;;;;25.19;29.59;97047.50;5015739;28;20064;-26
2021/03/17 07:42:12;;;;;;;0.28;0.20;;;;;;;25.18;29.53;97044.03;5018268;28;20052;-26
2021/03/17 07:44:39;;;;;;;1.13;0.40;;;;;;;25.20;29.58;97048.38;5015095;28;20025;-25
2021/03/17 07:47:06;;;;;;;0.85;0.30;;;;;;;25.20;29.46;97054.44;5034432;28;20527;-26
2021/03/17 07:49:32;;;;;;;3.38;0.40;;;;;;;25.20;29.49;97051.81;5037686;28;20036;-24
2021/03/17 07:52:00;;;;;;;13.60;1.17;;;;;;;25.18;29.62;97049.28;5037652;28;20020;-25
2021/03/17 07:54:28;;;;;;;3.13;0.93;;;;;;;25.19;29.27;97050.13;5038574;28;20025;-24
2021/03/17 07:56:57;;;;;;;7.78;1.35;;;;;;;25.18;29.36;97048.44;5038755;28;20031;-25
2021/03/17 07:59:23;;;;;;;8.50;1.20;;;;;;;25.18;29.57;97048.44;5038730;28;20509;-27
2021/03/17 08:01:52;;;;;;;4.65;1.40;;;;;;;25.18;29.44;97054.50;5034301;28;20045;-25
2021/03/17 08:04:18;;;;;;;7.03;1.05;;;;;;;25.17;29.38;97047.56;5017944;28;20119;-25
2021/03/17 08:06:44;;;;;;;4.07;0.98;;;;;;;25.18;29.50;97048.44;5034593;28;20567;-25
2021/03/17 08:09:09;;;;;;;5.80;0.80;;;;;;;25.19;29.29;97055.38;5033719;28;20037;-26
2021/03/17 08:11:35;;;;;;;1.38;0.75;;;;;;;25.20;29.37;97051.81;5035211;28;20029;-25
2021/03/17 08:14:00;;;;;;;2.38;0.70;;;;;;;25.22;29.67;97057.00;5033120;28;20033;-27
2021/03/17 08:16:34;;;;;;;2.05;0.85;;;;;;;25.22;29.66;97059.63;5035638;28;20052;-23
2021/03/17 08:18:59;;;;;;;5.68;1.00;;;;;;;25.23;29.46;97059.56;5028833;28;20690;-26
2021/03/17 08:21:47;;;;;;;1.90;0.90;;;;;;;25.23;29.53;97049.06;5032986;28;20041;-23
2021/03/17 08:24:35;;;;;;;1.58;0.68;;;;;;;25.24;29.71;97058.63;5030907;28;20551;-23
2021/03/17 08:27:05;;;;;;;3.00;0.88;;;;;;;25.25;29.80;97054.25;5030661;28;20036;-23
2021/03/17 08:29:50;;;;;;;1.27;0.70;;;;;;;25.25;29.80;97044.59;5015566;28;20048;-23
2021/03/17 08:32:17;;;;;;;2.70;0.73;;;;;;;25.26;29.61;97041.06;5032008;28;20036;-22
2021/03/17 08:34:56;;;;;;;3.10;0.73;;;;;;;25.26;29.91;97038.44;5029703;28;20053;-27
2021/03/17 08:37:49;;;;;;;3.88;0.60;;;;;;;25.26;29.74;97046.31;5031665;28;20423;-26
2021/03/17 08:40:29;;;;;;;4.03;0.93;;;;;;;25.28;29.90;97043.63;5033045;28;20029;-22
2021/03/17 08:42:57;;;;;;;2.80;0.68;;;;;;;25.30;29.84;97047.00;5033628;28;20064;-26
2021/03/17 08:45:22;;;;;;;0.70;0.60;;;;;;;25.29;29.79;97047.94;5028626;28;20044;-26
2021/03/17 08:47:48;;;;;;;1.73;0.70;;;;;;;25.31;29.76;97054.81;5009349;28;20021;-27
2021/03/17 08:50:21;;;;;;;2.53;0.88;;;;;;;25.31;30.08;97057.44;5011990;28;21119;-26
2021/03/17 08:52:50;;;;;;;3.47;0.90;;;;;;;25.33;29.88;97051.25;5011647;28;20484;-24
2021/03/17 08:55:22;;;;;;;1.98;0.60;;;;;;;25.35;30.05;97059.94;5011759;28;20151;-27
2021/03/17 08:57:48;;;;;;;2.35;0.80;;;;;;;25.36;30.03;97056.38;5008758;28;20033;-24
2021/03/17 09:00:14;;;;;;;1.08;0.75;;;;;;;25.36;29.98;97057.19;5015682;28;20052;-26
2021/03/17 09:02:39;;;;;;;1.77;0.80;;;;;;;25.37;29.95;97052.81;5030977;28;20180;-25
2021/03/17 09:05:17;;;;;;;1.08;0.60;;;;;;;25.38;30.16;97050.13;5065128;28;20112;-22
2021/03/17 09:08:06;;;;;;;5.07;0.60;;;;;;;25.39;30.04;97046.56;5032917;28;20496;-24
2021/03/17 09:10:45;;;;;;;1.45;0.60;;;;;;;25.41;30.31;97052.63;5034308;28;20568;-25
2021/03/17 09:13:12;;;;;;;36.38;1.90;;;;;;;25.41;29.66;97042.13;5034046;28;20041;-27
2021/03/17 09:15:48;;;;;;;12.65;3.50;;;;;;;25.38;28.45;97049.25;5031516;28;20516;-27
2021/03/17 09:18:13;;;;;;;11.80;4.45;;;;;;;25.20;26.23;97045.75;5028791;28;20043;-25
2021/03/17 09:20:47;;;;;;;6.95;4.63;;;;;;;24.96;25.81;97040.69;5023061;28;20029;-23
2021/03/17 09:23:22;;;;;;;13.55;3.80;;;;;;;24.74;25.69;97042.50;5027875;28;20091;-25
2021/03/17 09:25:49;;;;;;;6.85;2.97;;;;;;;24.62;25.88;97037.81;5041481;28;20120;-25
2021/03/17 09:28:28;;;;;;;5.60;2.50;;;;;;;24.53;26.40;97037.28;5038406;28;20132;-25
2021/03/17 09:31:00;;;;;;;4.10;2.17;;;;;;;24.51;26.47;97035.66;5039454;28;20068;-27
2021/03/17 09:33:30;;;;;;;3.50;1.80;;;;;;;24.51;26.65;97026.03;5042189;28;20021;-25
2021/03/17 09:36:17;;;;;;;5.43;1.73;;;;;;;24.53;26.80;97026.81;5038208;28;20032;-23
2021/03/17 09:38:47;;;;;;;6.78;1.67;;;;;;;24.58;27.08;97028.38;5041250;28;20029;-27
2021/03/17 09:41:14;;;;;;;3.47;1.30;;;;;;;24.62;27.23;97032.56;5039330;28;20026;-25
2021/03/17 09:43:40;;;;;;;3.38;1.33;;;;;;;24.66;27.30;97029.75;5037095;28;20025;-24
2021/03/17 09:46:27;;;;;;;3.00;1.30;;;;;;;24.72;27.43;97036.50;5028387;28;20037;-27
2021/03/17 09:48:57;;;;;;;4.00;1.48;;;;;;;24.77;27.36;97033.66;5014312;28;20424;-27
2021/03/17 09:51:31;;;;;;;3.65;1.50;;;;;;;24.82;27.56;97039.53;5015399;28;20162;-25
2021/03/17 09:53:59;;;;;;;4.88;1.48;;;;;;;24.86;27.35;97043.75;5014753;28;20429;-21
2021/03/17 09:56:44;;;;;;;3.22;1.48;;;;;;;24.91;27.69;97038.31;5021717;28;21826;-23
2021/03/17 09:59:16;;;;;;;9.38;2.10;;;;;;;24.95;27.51;97042.50;5009213;28;20057;-28
2021/03/17 10:01:55;;;;;;;7.18;2.80;;;;;;;24.98;26.65;97039.72;5026812;28;20056;-28
2021/03/17 10:05:01;;;;;;;11.02;3.30;;;;;;;24.96;26.59;97044.19;5031104;28;20036;-23
2021/03/17 10:07:25;;;;;;;14.20;2.50;;;;;;;24.97;26.96;97037.19;5029500;28;20068;-24
2021/03/17 10:09:51;;;;;;;12.75;3.10;;;;;;;24.99;27.12;97030.94;5033667;28;20120;-24
2021/03/17 10:12:21;;;;;;;8.73;2.40;;;;;;;25.02;27.10;97038.66;5029681;28;20055;-23
2021/03/17 10:14:52;;;;;;;14.32;2.38;;;;;;;25.04;27.41;97021.09;5030453;28;20469;-25
2021/03/17 10:17:17;;;;;;;7.30;2.38;;;;;;;25.09;27.47;97017.41;5028090;28;21954;-26
2021/03/17 10:19:47;;;;;;;7.70;2.22;;;;;;;25.13;27.39;97016.34;5030270;28;20540;-26
2021/03/17 10:22:15;;;;;;;12.10;2.40;;;;;;;25.12;27.64;97007.63;5032748;28;20021;-24
2021/03/17 10:24:42;;;;;;;6.43;1.98;;;;;;;25.21;27.54;97010.72;5018057;28;20025;-28
2021/03/17 10:27:10;;;;;;;12.65;2.22;;;;;;;25.23;27.67;97007.09;5012346;28;20071;-26
2021/03/17 10:29:35;;;;;;;8.52;2.38;;;;;;;25.27;27.94;96998.19;5028496;28;20036;-26
2021/03/17 10:32:05;;;;;;;6.82;2.00;;;;;;;25.29;27.92;96998.94;5008039;28;20049;-25
2021/03/17 10:34:31;;;;;;;8.30;2.50;;;;;;;25.34;27.96;96995.25;5030212;28;20025;-24
2021/03/17 10:36:57;;;;;;;8.45;2.20;;;;;;;25.35;27.96;96997.78;5032807;28;20024;-24
2021/03/17 10:39:27;;;;;;;6.38;1.80;;;;;;;25.39;27.88;96995.88;5031403;28;20063;-24
2021/03/17 10:41:52;;;;;;;7.65;2.00;;;;;;;25.40;28.06;97000.22;5033142;28;20064;-21
2021/03/17 10:44:31;;;;;;;7.07;2.20;;;;;;;25.43;28.16;96994.78;5028552;28;20036;-25
2021/03/17 10:47:02;;;;;;;8.80;1.80;;;;;;;25.47;27.94;96993.72;5030471;28;20156;-26
2021/03/17 10:49:28;;;;;;;5.30;1.92;;;;;;;25.49;27.97;96998.91;5029594;28;20036;-23
2021/03/17 10:51:54;;;;;;;7.50;1.98;;;;;;;25.50;28.10;96990.97;5030556;28;20025;-23
2021/03/17 10:54:37;;;;;;;7.90;1.80;;;;;;;25.52;28.12;96994.34;5028916;28;20021;-21
2021/03/17 10:57:02;;;;;;;3.95;1.40;;;;;;;25.54;28.01;96997.75;5031357;28;20090;-25
2021/03/17 10:59:33;;;;;;;6.30;1.90;;;;;;;25.55;28.20;96986.34;5031427;28;20033;-23
2021/03/17 11:02:17;;;;;;;6.80;1.60;;;;;;;25.59;28.41;96989.69;5016530;28;20521;-27
2021/03/17 11:05:09;;;;;;;5.07;1.63;;;;;;;25.59;28.38;96979.19;5011715;28;20063;-28
2021/03/17 11:07:56;;;;;;;5.78;1.42;;;;;;;25.61;28.53;96982.59;5005625;28;20124;-23
2021/03/17 11:10:28;;;;;;;4.30;1.67;;;;;;;25.62;28.34;96979.03;5009164;28;20030;-23
2021/03/17 11:12:54;;;;;;;4.93;1.58;;;;;;;25.63;28.42;96980.72;5025700;28;20397;-23
2021/03/17 11:15:27;;;;;;;4.07;1.50;;;;;;;25.65;28.41;96983.28;5007221;28;20017;-24
2021/03/17 11:17:53;;;;;;;5.88;1.50;;;;;;;25.66;28.46;96985.84;5031845;28;20033;-24
2021/03/17 11:20:18;;;;;;;4.35;1.52;;;;;;;25.67;28.59;96982.28;5030814;28;20438;-23
2021/03/17 11:22:44;;;;;;;5.85;1.63;;;;;;;25.68;28.49;96972.63;5031257;28;20029;-24
2021/03/17 11:25:11;;;;;;;5.40;1.88;;;;;;;25.69;28.44;96969.94;5031905;28;20033;-25
2021/03/17 11:27:36;;;;;;;5.13;1.73;;;;;;;25.70;28.46;96966.38;5029106;28;20107;-23
2021/03/17 11:30:02;;;;;;;5.13;1.42;;;;;;;25.73;28.43;96969.81;5032980;28;20033;-24
2021/03/17 11:32:30;;;;;;;2.90;1.20;;;;;;;25.73;28.54;96968.00;5026462;28;20033;-23
2021/03/17 11:34:56;;;;;;;3.95;1.30;;;;;;;25.74;28.61;96967.06;5031603;28;20032;-22
2021/03/17 11:37:21;;;;;;;4.32;1.20;;;;;;;25.74;28.30;96969.69;5032617;28;20056;-25
2021/03/17 11:39:47;;;;;;;3.78;1.27;;;;;;;25.75;28.53;96962.69;5038979;28;20029;-23
2021/03/17 11:42:12;;;;;;;6.68;1.38;;;;;;;25.75;28.69;96968.78;5024733;28;20037;-28